Time;durP1;ratioP1;P1;durP2;ratioP2;P2;SDS_P1;SDS_P2;PMS_P1;PMS_P2;Temp;Humidity;BMP_temperature;BMP_pressure;BME280_temperature;BME280_humidity;BME280_pressure;Samples;Min_cycle;Max_cycle;Signal;HPM_P1;HPM_P2
2023/05/06 00:01:55;;;;;;;148.83;141.93;;;;;;;6.07;100.00;101943.28;5012815;28;20500;-43
2023/05/06 00:04:24;;;;;;;141.10;133.90;;;;;;;6.11;100.00;101934.09;5012134;28;20787;-41
2023/05/06 00:06:52;;;;;;;134.43;127.53;;;;;;;6.09;100.00;101930.72;5012575;28;20447;-41
2023/05/06 00:09:20;;;;;;;146.03;138.03;;;;;;;6.09;100.00;101933.38;5012352;28;20564;-43
2023/05/06 00:11:47;;;;;;;123.67;117.43;;;;;;;6.13;100.00;101933.94;5012422;28;20429;-41
2023/05/06 00:14:16;;;;;;;116.77;110.30;;;;;;;6.13;100.00;101923.34;5013564;28;20428;-41
2023/05/06 00:16:43;;;;;;;114.13;108.30;;;;;;;6.15;100.00;101928.53;5012383;28;20433;-41
2023/05/06 00:19:11;;;;;;;112.00;104.93;;;;;;;6.17;100.00;101932.72;5012186;28;20833;-44
2023/05/06 00:21:40;;;;;;;128.80;121.80;;;;;;;6.14;100.00;101922.38;5011887;28;20481;-43
2023/05/06 00:24:08;;;;;;;136.47;129.40;;;;;;;6.16;100.00;101924.88;5012534;28;20953;-41
2023/05/06 00:26:35;;;;;;;135.93;128.63;;;;;;;6.18;100.00;101926.44;5012713;28;20437;-42
2023/05/06 00:29:03;;;;;;;117.77;111.97;;;;;;;6.17;100.00;101918.63;5012224;28;20460;-44
2023/05/06 00:31:31;;;;;;;109.67;103.87;;;;;;;6.19;100.00;101921.97;5012627;28;20490;-41
2023/05/06 00:33:58;;;;;;;151.70;143.30;;;;;;;6.19;100.00;101924.59;5011925;28;20437;-43
2023/05/06 00:36:27;;;;;;;117.37;111.37;;;;;;;6.21;100.00;101922.69;5011293;28;20967;-41
2023/05/06 00:38:56;;;;;;;140.17;133.07;;;;;;;6.21;100.00;101898.84;5012295;28;20472;-41
2023/05/06 00:41:23;;;;;;;131.37;124.23;;;;;;;6.24;100.00;101906.50;5011538;28;20429;-41
2023/05/06 00:43:51;;;;;;;136.43;129.13;;;;;;;6.23;100.00;101910.97;5012321;28;20432;-41
2023/05/06 00:46:19;;;;;;;107.77;102.07;;;;;;;6.22;100.00;101901.34;5011780;28;21009;-42
2023/05/06 00:48:47;;;;;;;113.77;106.63;;;;;;;6.24;100.00;101917.09;5009217;28;20564;-42
2023/05/06 00:51:15;;;;;;;109.70;103.50;;;;;;;6.26;100.00;101913.34;5011176;28;20429;-41
2023/05/06 00:53:45;;;;;;;103.77;98.23;;;;;;;6.27;100.00;101906.22;5012045;28;20429;-40
2023/05/06 00:56:16;;;;;;;128.40;121.73;;;;;;;6.24;100.00;101917.94;5011783;28;20437;-41
2023/05/06 00:58:48;;;;;;;91.03;86.00;;;;;;;6.27;100.00;101914.19;5011830;28;20901;-41
2023/05/06 01:01:16;;;;;;;78.77;74.67;;;;;;;6.24;100.00;101902.06;5011496;28;20927;-41
2023/05/06 01:03:44;;;;;;;94.83;90.03;;;;;;;6.17;100.00;101892.97;5011667;28;20469;-45
2023/05/06 01:06:19;;;;;;;97.23;92.37;;;;;;;6.19;100.00;101912.22;5011759;28;20512;-42
2023/05/06 01:08:55;;;;;;;80.43;75.93;;;;;;;6.20;100.00;101915.69;5011287;28;20467;-43
2023/05/06 01:11:32;;;;;;;78.73;74.43;;;;;;;6.22;100.00;101913.72;5011315;28;20433;-41
2023/05/06 01:14:06;;;;;;;79.33;74.97;;;;;;;6.24;100.00;101914.44;5010868;28;20426;-43
2023/05/06 01:16:40;;;;;;;79.00;74.10;;;;;;;6.21;100.00;101912.94;5011541;28;20780;-47
2023/05/06 01:19:09;;;;;;;77.67;73.70;;;;;;;6.24;100.00;101923.25;5011070;28;20472;-47
2023/05/06 01:21:41;;;;;;;73.60;69.40;;;;;;;6.27;100.00;101912.38;5011583;28;20630;-44
2023/05/06 01:24:10;;;;;;;71.63;67.30;;;;;;;6.27;100.00;101927.41;5011743;28;20973;-44
2023/05/06 01:26:39;;;;;;;74.03;69.47;;;;;;;6.28;100.00;101910.53;5011412;28;20498;-42
2023/05/06 01:29:07;;;;;;;90.80;85.70;;;;;;;6.28;100.00;101910.53;5010793;28;20464;-43
2023/05/06 01:31:42;;;;;;;81.63;77.60;;;;;;;6.28;100.00;101937.84;5011458;28;20823;-45
2023/05/06 01:34:15;;;;;;;92.10;87.07;;;;;;;6.27;100.00;101930.91;5011495;28;20954;-42
2023/05/06 01:36:49;;;;;;;92.23;86.67;;;;;;;6.21;100.00;101918.22;5010667;28;20433;-41
2023/05/06 01:39:23;;;;;;;84.27;79.63;;;;;;;6.21;100.00;101918.22;5010609;28;20472;-41
2023/05/06 01:41:54;;;;;;;83.03;78.37;;;;;;;6.29;100.00;101904.25;5011081;28;21000;-42
2023/05/06 01:44:23;;;;;;;77.37;72.97;;;;;;;6.29;100.00;101907.75;5010659;28;20441;-43
2023/05/06 01:46:53;;;;;;;99.13;93.73;;;;;;;6.26;100.00;101899.25;5010994;28;20461;-41
2023/05/06 01:49:23;;;;;;;96.67;91.63;;;;;;;6.24;100.00;101902.06;5009216;28;20485;-45
2023/05/06 01:51:51;;;;;;;74.63;69.53;;;;;;;6.26;100.00;101901.91;5010846;28;20434;-41
2023/05/06 01:54:20;;;;;;;77.87;72.93;;;;;;;6.31;100.00;101907.59;5011326;28;20952;-41
2023/05/06 01:56:48;;;;;;;76.60;72.27;;;;;;;6.28;100.00;101918.47;5011238;28;20529;-42
2023/05/06 01:59:16;;;;;;;80.93;76.57;;;;;;;6.22;100.00;101903.13;5010624;28;20922;-41
2023/05/06 02:01:44;;;;;;;75.93;71.60;;;;;;;6.24;100.00;101912.66;5012045;28;20429;-42
2023/05/06 02:04:12;;;;;;;85.47;80.27;;;;;;;6.24;100.00;101919.75;5014553;28;21068;-41
2023/05/06 02:06:39;;;;;;;70.63;66.30;;;;;;;6.24;100.00;101920.59;5015211;28;20432;-42
2023/05/06 02:09:07;;;;;;;81.77;77.40;;;;;;;6.20;100.00;101918.34;5008616;28;20484;-42
2023/05/06 02:11:36;;;;;;;68.37;64.10;;;;;;;6.22;100.00;101916.38;5015156;28;20431;-40
2023/05/06 02:14:03;;;;;;;62.00;58.60;;;;;;;6.25;100.00;101929.34;5014556;28;20439;-41
2023/05/06 02:16:31;;;;;;;58.03;54.50;;;;;;;6.25;100.00;101939.94;5015021;28;20799;-42
2023/05/06 02:18:59;;;;;;;72.50;68.10;;;;;;;6.22;100.00;101930.47;5014354;28;20452;-41
2023/05/06 02:21:27;;;;;;;64.83;61.07;;;;;;;6.26;100.00;101931.03;5013421;28;20436;-43
2023/05/06 02:23:55;;;;;;;59.10;55.43;;;;;;;6.28;100.00;101929.91;5015302;28;20503;-41
2023/05/06 02:26:23;;;;;;;56.60;53.13;;;;;;;6.26;100.00;101933.69;5014636;28;20815;-41
2023/05/06 02:28:52;;;;;;;60.70;56.40;;;;;;;6.29;100.00;101928.94;5013235;28;21044;-41
2023/05/06 02:31:19;;;;;;;64.07;60.20;;;;;;;6.30;100.00;101933.25;5014511;28;20443;-42
2023/05/06 02:33:47;;;;;;;62.23;58.40;;;;;;;6.35;100.00;101925.75;5012766;28;20429;-42
2023/05/06 02:36:15;;;;;;;72.20;68.03;;;;;;;6.26;100.00;101931.88;5014175;28;20487;-47
2023/05/06 02:38:42;;;;;;;70.90;66.83;;;;;;;6.30;100.00;101924.50;5014070;28;21210;-40
2023/05/06 02:41:10;;;;;;;61.53;57.73;;;;;;;6.29;100.00;101930.75;5014482;28;20780;-42
2023/05/06 02:43:38;;;;;;;61.33;57.60;;;;;;;6.34;100.00;101931.16;5014160;28;20468;-41
2023/05/06 02:46:07;;;;;;;61.03;56.97;;;;;;;6.29;100.00;101938.69;5014105;28;20433;-41
2023/05/06 02:48:35;;;;;;;58.57;55.20;;;;;;;6.28;100.00;101932.56;5026859;22;20495;-40
2023/05/06 02:51:02;;;;;;;59.33;55.53;;;;;;;6.26;100.00;101941.63;5020956;28;20425;-46
2023/05/06 02:53:30;;;;;;;66.30;61.97;;;;;;;6.21;100.00;101912.94;5020218;28;20433;-40
2023/05/06 02:55:58;;;;;;;71.47;67.40;;;;;;;6.21;100.00;101927.97;5020038;28;20443;-43
2023/05/06 02:58:26;;;;;;;64.97;60.63;;;;;;;6.24;100.00;101931.19;5020653;28;20449;-41
2023/05/06 03:00:53;;;;;;;63.27;59.40;;;;;;;6.21;100.00;101925.31;5019662;28;20445;-44
2023/05/06 03:03:22;;;;;;;63.77;59.80;;;;;;;6.28;100.00;101926.41;5020330;28;20472;-45
2023/05/06 03:05:50;;;;;;;57.10;53.60;;;;;;;6.28;100.00;101937.84;5020418;28;20441;-40
2023/05/06 03:08:18;;;;;;;56.70;52.20;;;;;;;6.30;100.00;101924.50;5020731;28;20455;-42
2023/05/06 03:10:45;;;;;;;56.40;52.80;;;;;;;6.29;100.00;101926.28;5020060;28;20483;-41
2023/05/06 03:13:13;;;;;;;60.53;56.67;;;;;;;6.29;100.00;101923.66;5019454;28;20460;-40
2023/05/06 03:15:41;;;;;;;58.87;55.07;;;;;;;6.27;100.00;101920.31;5020219;28;20431;-40
2023/05/06 03:18:09;;;;;;;61.20;57.03;;;;;;;6.22;100.00;101914.56;5020108;28;20448;-41
2023/05/06 03:20:38;;;;;;;62.40;58.70;;;;;;;6.23;100.00;101926.00;5019309;28;20987;-40
2023/05/06 03:23:06;;;;;;;58.23;54.70;;;;;;;6.24;100.00;101919.75;5019399;28;20437;-43
2023/05/06 03:25:33;;;;;;;58.83;54.90;;;;;;;6.19;100.00;101919.31;5020014;28;20444;-41
2023/05/06 03:28:01;;;;;;;58.97;55.27;;;;;;;6.21;100.00;101918.22;5019630;28;20460;-41
2023/05/06 03:30:29;;;;;;;58.17;54.93;;;;;;;6.25;100.00;101921.41;5019756;28;20465;-45
2023/05/06 03:32:57;;;;;;;57.77;53.73;;;;;;;6.25;100.00;101926.69;5019760;28;20433;-44
2023/05/06 03:35:25;;;;;;;57.10;53.30;;;;;;;6.20;100.00;101916.53;5019652;28;20435;-45
2023/05/06 03:37:54;;;;;;;62.83;58.50;;;;;;;6.23;100.00;101910.97;5019293;28;20449;-42
2023/05/06 03:40:22;;;;;;;60.80;56.93;;;;;;;6.21;100.00;101914.72;5018800;28;20453;-45
2023/05/06 03:42:49;;;;;;;56.20;52.80;;;;;;;6.23;100.00;101921.56;5019194;28;20437;-43
2023/05/06 03:45:17;;;;;;;57.67;54.27;;;;;;;6.20;100.00;101905.09;5019778;28;20474;-46
2023/05/06 03:47:45;;;;;;;55.37;52.00;;;;;;;6.18;100.00;101917.66;5019703;28;20981;-42
2023/05/06 03:50:13;;;;;;;51.30;47.80;;;;;;;6.18;100.00;101909.72;5018669;28;20467;-43
2023/05/06 03:52:41;;;;;;;49.13;45.93;;;;;;;6.18;100.00;101918.50;5019356;28;21032;-43
2023/05/06 03:55:11;;;;;;;47.63;44.00;;;;;;;6.19;100.00;101911.38;5019097;28;20433;-42
2023/05/06 03:57:39;;;;;;;42.87;39.57;;;;;;;6.16;100.00;101895.75;5019114;28;20449;-43
2023/05/06 04:00:08;;;;;;;38.33;35.53;;;;;;;6.20;100.00;101913.06;5018271;28;20548;-46
2023/05/06 04:02:36;;;;;;;33.90;31.37;;;;;;;6.13;100.00;101910.13;5018981;28;20495;-43
2023/05/06 04:05:05;;;;;;;33.07;29.90;;;;;;;6.14;100.00;101911.81;5018124;28;20509;-42
2023/05/06 04:07:32;;;;;;;31.37;28.87;;;;;;;6.13;100.00;101923.34;5018823;28;20449;-42
2023/05/06 04:10:00;;;;;;;31.60;28.87;;;;;;;6.15;100.00;101915.28;5017671;28;20827;-44
2023/05/06 04:12:29;;;;;;;31.10;27.50;;;;;;;6.12;100.00;101921.72;5018215;28;20459;-43
2023/05/06 04:14:57;;;;;;;31.67;28.83;;;;;;;6.13;100.00;101916.25;5019661;28;20768;-44
2023/05/06 04:17:24;;;;;;;30.97;28.80;;;;;;;6.12;100.00;101916.41;5018446;28;20527;-44
2023/05/06 04:19:52;;;;;;;29.47;26.77;;;;;;;6.12;100.00;101922.50;5010875;28;20469;-43
2023/05/06 04:22:20;;;;;;;28.47;26.60;;;;;;;6.13;100.00;101915.41;5016603;28;20445;-42
2023/05/06 04:24:48;;;;;;;28.67;26.60;;;;;;;6.12;100.00;101911.91;5014030;28;20499;-43
2023/05/06 04:27:15;;;;;;;29.60;26.73;;;;;;;6.13;100.00;101905.66;5017915;28;20492;-42
2023/05/06 04:29:45;;;;;;;28.43;26.10;;;;;;;6.17;100.00;101916.81;5017854;28;20874;-46
2023/05/06 04:32:13;;;;;;;28.97;26.67;;;;;;;6.20;100.00;101916.53;5015560;28;20430;-43
2023/05/06 04:34:40;;;;;;;28.63;26.37;;;;;;;6.22;100.00;101927.81;5018026;28;20433;-43
2023/05/06 04:37:08;;;;;;;26.57;24.40;;;;;;;6.21;100.00;101907.63;5018575;28;20461;-41
2023/05/06 04:39:35;;;;;;;25.37;23.47;;;;;;;6.18;100.00;101922.94;5017238;28;20460;-43
2023/05/06 04:42:03;;;;;;;24.77;22.83;;;;;;;6.19;100.00;101928.09;5018475;28;20491;-44
2023/05/06 04:44:32;;;;;;;24.90;22.90;;;;;;;6.20;100.00;101931.59;5018698;28;20477;-44
2023/05/06 04:47:01;;;;;;;24.70;22.90;;;;;;;6.20;100.00;101942.19;5018348;28;20445;-48
2023/05/06 04:49:29;;;;;;;26.10;23.70;;;;;;;6.21;100.00;101930.63;5015002;28;20560;-45
2023/05/06 04:51:57;;;;;;;26.80;24.40;;;;;;;6.22;100.00;101935.75;5017531;28;20425;-42
2023/05/06 04:54:25;;;;;;;24.40;22.23;;;;;;;6.20;100.00;101936.88;5017472;28;20438;-41
2023/05/06 04:56:53;;;;;;;22.47;21.03;;;;;;;6.20;100.00;101944.84;5006962;28;20433;-41
2023/05/06 04:59:21;;;;;;;23.10;21.30;;;;;;;6.24;100.00;101941.78;5017658;28;20433;-43
2023/05/06 05:01:48;;;;;;;24.20;22.20;;;;;;;6.28;100.00;101947.63;5017631;28;20834;-44
2023/05/06 05:04:17;;;;;;;22.77;20.97;;;;;;;6.27;100.00;101944.16;5016374;28;20815;-47
2023/05/06 05:06:45;;;;;;;22.40;20.73;;;;;;;6.28;100.00;101950.25;5017796;28;20429;-44
2023/05/06 05:09:13;;;;;;;26.17;21.90;;;;;;;6.25;100.00;101947.88;5017272;28;20441;-41
2023/05/06 05:11:40;;;;;;;21.90;20.13;;;;;;;6.31;100.00;101948.19;5017305;28;20484;-40
2023/05/06 05:14:08;;;;;;;23.07;21.30;;;;;;;6.29;100.00;101949.28;5017860;28;20433;-44
2023/05/06 05:16:36;;;;;;;22.63;20.90;;;;;;;6.35;100.00;101954.03;5018445;28;20433;-43
2023/05/06 05:19:05;;;;;;;22.70;20.83;;;;;;;6.30;100.00;101951.78;5018596;28;20809;-47
2023/05/06 05:21:37;;;;;;;23.67;21.37;;;;;;;6.31;100.00;101958.78;5007004;28;20623;-41
2023/05/06 05:24:05;;;;;;;21.70;20.10;;;;;;;6.30;100.00;101980.13;5018025;28;20565;-43
2023/05/06 05:26:33;;;;;;;21.47;19.67;;;;;;;6.30;100.00;101965.03;5011901;28;20436;-44
2023/05/06 05:29:00;;;;;;;22.07;20.60;;;;;;;6.32;100.00;101962.25;5015291;28;20507;-41
2023/05/06 05:31:29;;;;;;;22.70;21.20;;;;;;;6.32;100.00;101964.91;5016260;28;20460;-48
2023/05/06 05:33:57;;;;;;;23.83;21.80;;;;;;;6.39;100.00;101955.44;5017610;28;20433;-41
2023/05/06 05:36:26;;;;;;;22.13;20.30;;;;;;;6.44;100.00;101963.78;5017155;28;20433;-42
2023/05/06 05:38:55;;;;;;;22.67;20.87;;;;;;;6.48;100.00;101966.00;5017390;28;20457;-44
2023/05/06 05:41:24;;;;;;;23.27;21.30;;;;;;;6.44;100.00;101969.94;5015699;28;20469;-41
2023/05/06 05:43:53;;;;;;;24.20;22.07;;;;;;;6.46;100.00;101967.97;5016258;28;21021;-42
2023/05/06 05:46:20;;;;;;;23.17;21.07;;;;;;;6.40;100.00;101973.84;5017715;28;20481;-41
2023/05/06 05:48:48;;;;;;;23.80;22.00;;;;;;;6.42;100.00;101961.28;5015729;28;20461;-42
2023/05/06 05:51:16;;;;;;;21.97;20.10;;;;;;;6.39;100.00;101972.16;5013975;28;20476;-42
2023/05/06 05:53:44;;;;;;;23.07;21.13;;;;;;;6.43;100.00;101970.06;5016410;28;20437;-41
2023/05/06 05:56:13;;;;;;;22.73;21.03;;;;;;;6.48;100.00;101973.16;5015991;28;20465;-45
2023/05/06 05:58:40;;;;;;;23.37;21.47;;;;;;;6.48;100.00;101971.31;5013785;28;20454;-48
2023/05/06 06:01:08;;;;;;;24.30;22.23;;;;;;;6.47;100.00;101968.81;5015480;28;20469;-43
2023/05/06 06:03:36;;;;;;;23.50;21.50;;;;;;;6.52;100.00;101966.56;5015141;28;20983;-43
2023/05/06 06:06:04;;;;;;;25.60;23.30;;;;;;;6.61;100.00;101971.03;5015130;28;20576;-44
2023/05/06 06:08:32;;;;;;;23.87;21.60;;;;;;;6.61;100.00;101984.28;5017231;28;20472;-44
2023/05/06 06:11:00;;;;;;;23.60;21.77;;;;;;;6.62;100.00;101978.84;5011539;28;20484;-46
2023/05/06 06:13:30;;;;;;;24.47;22.47;;;;;;;6.59;100.00;101983.59;5014820;28;20526;-43
2023/05/06 06:15:57;;;;;;;23.87;21.07;;;;;;;6.63;100.00;101983.16;5015545;28;20418;-46
2023/05/06 06:18:25;;;;;;;23.17;20.97;;;;;;;6.63;100.00;101980.50;5015518;28;20656;-41
2023/05/06 06:20:53;;;;;;;23.00;21.20;;;;;;;6.61;100.00;101984.28;5013488;28;20465;-44
2023/05/06 06:23:21;;;;;;;23.30;21.30;;;;;;;6.65;100.00;101981.22;4962525;28;20477;-44
2023/05/06 06:25:48;;;;;;;22.87;21.37;;;;;;;6.66;100.00;101982.88;5016186;28;20563;-45
2023/05/06 06:28:16;;;;;;;22.30;20.83;;;;;;;6.66;100.00;101982.03;5016745;28;20512;-42
2023/05/06 06:30:45;;;;;;;22.67;20.87;;;;;;;6.73;100.00;101983.16;5017504;28;20432;-40
2023/05/06 06:33:13;;;;;;;23.17;21.30;;;;;;;6.66;100.00;101984.69;5012549;28;20468;-41
2023/05/06 06:35:41;;;;;;;22.63;20.77;;;;;;;6.64;100.00;101984.00;5016937;28;20503;-41
2023/05/06 06:38:09;;;;;;;21.83;20.33;;;;;;;6.71;100.00;101993.06;5014411;28;20461;-41
2023/05/06 06:40:36;;;;;;;22.10;20.30;;;;;;;6.69;100.00;101974.66;5014973;28;20432;-41
2023/05/06 06:43:04;;;;;;;22.70;20.87;;;;;;;6.66;100.00;101985.53;5016011;28;20461;-43
2023/05/06 06:45:33;;;;;;;22.00;20.33;;;;;;;6.73;100.00;101985.81;5017587;28;20473;-42
2023/05/06 06:48:02;;;;;;;23.10;21.50;;;;;;;6.69;100.00;101985.25;5017461;28;20997;-41
2023/05/06 06:50:30;;;;;;;23.33;21.50;;;;;;;6.73;100.00;101982.31;5017352;28;20437;-45
2023/05/06 06:52:58;;;;;;;24.33;22.43;;;;;;;6.74;100.00;101984.00;5019756;28;20664;-44
2023/05/06 06:55:25;;;;;;;24.10;22.07;;;;;;;6.75;100.00;101978.53;5021235;28;20431;-41
2023/05/06 06:57:53;;;;;;;24.20;22.27;;;;;;;6.85;100.00;101983.84;5017115;28;20476;-43
2023/05/06 07:00:21;;;;;;;23.10;21.63;;;;;;;6.81;100.00;101982.47;5018392;28;20433;-42
2023/05/06 07:02:49;;;;;;;23.43;21.83;;;;;;;6.88;100.00;101980.91;4993213;28;20551;-46
2023/05/06 07:05:18;;;;;;;25.00;22.80;;;;;;;6.94;100.00;101983.81;5019062;28;20473;-45
2023/05/06 07:07:46;;;;;;;23.53;22.20;;;;;;;6.90;100.00;101986.91;5019665;28;20472;-40
2023/05/06 07:10:14;;;;;;;25.10;23.30;;;;;;;6.97;100.00;101988.84;5016965;28;20457;-46
2023/05/06 07:12:41;;;;;;;24.77;23.17;;;;;;;6.91;100.00;101983.25;5006299;28;20473;-46
2023/05/06 07:15:09;;;;;;;26.40;24.27;;;;;;;6.91;100.00;101996.53;5023369;28;20468;-42
2023/05/06 07:17:37;;;;;;;26.37;24.07;;;;;;;6.98;100.00;101997.63;5019847;28;20453;-42
2023/05/06 07:20:07;;;;;;;27.47;25.47;;;;;;;6.95;100.00;101993.47;5019675;28;20519;-44
2023/05/06 07:22:36;;;;;;;26.93;24.73;;;;;;;6.91;100.00;101989.41;5018880;28;20491;-45
2023/05/06 07:25:04;;;;;;;25.10;23.40;;;;;;;6.95;100.00;101990.81;5019559;28;20501;-43
2023/05/06 07:27:31;;;;;;;26.90;24.63;;;;;;;6.92;100.00;101998.22;5011948;28;20620;-46
2023/05/06 07:29:59;;;;;;;26.33;24.53;;;;;;;7.01;100.00;101998.19;5000333;28;20432;-45
2023/05/06 07:32:26;;;;;;;25.93;24.13;;;;;;;7.10;100.00;102005.28;5002327;28;21012;-46
2023/05/06 07:34:54;;;;;;;25.93;24.20;;;;;;;7.14;100.00;102000.50;5019772;28;20433;-42
2023/05/06 07:37:22;;;;;;;26.23;24.43;;;;;;;7.19;100.00;102012.41;5018966;28;20488;-42
2023/05/06 07:39:51;;;;;;;26.17;24.57;;;;;;;7.18;100.00;102013.38;5019750;28;20440;-45
2023/05/06 07:42:18;;;;;;;26.77;24.93;;;;;;;7.24;100.00;102020.75;5017937;28;20457;-40
2023/05/06 07:44:46;;;;;;;25.70;24.07;;;;;;;7.24;100.00;102027.88;5018800;28;20933;-42
2023/05/06 07:47:25;;;;;;;26.67;24.77;;;;;;;7.25;100.00;102018.94;5019789;28;20492;-44
2023/05/06 07:49:53;;;;;;;25.93;23.90;;;;;;;7.22;100.00;102021.88;5020057;28;20464;-45
2023/05/06 07:52:21;;;;;;;25.60;23.80;;;;;;;7.31;100.00;102026.31;5016180;28;20440;-47
2023/05/06 07:54:48;;;;;;;26.80;24.60;;;;;;;7.34;100.00;102025.19;5020129;28;20500;-46
2023/05/06 07:57:18;;;;;;;26.63;24.47;;;;;;;7.40;100.00;102020.16;5018938;28;20453;-43
2023/05/06 07:59:48;;;;;;;24.33;22.60;;;;;;;7.35;100.00;102024.22;5019364;28;20468;-42
2023/05/06 08:02:16;;;;;;;26.30;24.27;;;;;;;7.45;100.00;102025.84;5019785;28;20433;-41
2023/05/06 08:04:45;;;;;;;25.57;23.80;;;;;;;7.49;100.00;102029.06;5012837;28;20467;-48
2023/05/06 08:07:13;;;;;;;23.83;22.20;;;;;;;7.51;100.00;102030.59;5018393;28;20476;-41
2023/05/06 08:09:41;;;;;;;23.90;22.33;;;;;;;7.46;100.00;102030.19;5001420;28;20442;-44
2023/05/06 08:12:09;;;;;;;23.80;22.30;;;;;;;7.50;100.00;102031.56;5003595;28;20443;-44
2023/05/06 08:14:38;;;;;;;25.57;23.70;;;;;;;7.46;100.00;102026.69;5018141;28;20463;-44
2023/05/06 08:17:05;;;;;;;26.53;24.47;;;;;;;7.46;100.00;102034.66;5002771;28;20831;-41
2023/05/06 08:19:33;;;;;;;25.10;23.50;;;;;;;7.49;100.00;102037.03;4999518;28;20446;-43
2023/05/06 08:22:00;;;;;;;25.00;22.73;;;;;;;7.53;100.00;102036.56;4999552;28;20434;-45
2023/05/06 08:24:28;;;;;;;26.73;24.63;;;;;;;7.55;100.00;102033.78;4993920;28;21198;-43
2023/05/06 08:26:56;;;;;;;25.30;23.70;;;;;;;7.58;100.00;102044.13;5016853;28;20956;-46
2023/05/06 08:29:23;;;;;;;26.37;24.70;;;;;;;7.58;100.00;102047.63;5017520;28;20429;-46
2023/05/06 08:31:52;;;;;;;25.60;23.70;;;;;;;7.71;100.00;102047.25;5018752;28;20433;-42
2023/05/06 08:34:21;;;;;;;26.50;24.60;;;;;;;7.68;100.00;102047.53;5013829;28;20472;-42
2023/05/06 08:36:49;;;;;;;25.07;23.50;;;;;;;7.63;100.00;102045.34;5018400;28;20439;-40
2023/05/06 08:39:17;;;;;;;26.97;24.70;;;;;;;7.65;100.00;102048.69;5019436;28;20496;-44
2023/05/06 08:41:47;;;;;;;26.80;24.63;;;;;;;7.58;100.00;102052.91;5018912;28;20441;-42
2023/05/06 08:44:17;;;;;;;27.00;25.10;;;;;;;7.65;100.00;102053.16;5019065;28;20520;-43
2023/05/06 08:46:45;;;;;;;26.13;24.23;;;;;;;7.73;100.00;102054.13;5019090;28;21066;-42
2023/05/06 08:49:15;;;;;;;26.27;24.40;;;;;;;7.75;100.00;102060.13;5018245;28;20421;-42
2023/05/06 08:51:44;;;;;;;26.17;24.13;;;;;;;7.65;100.00;102059.31;5043920;22;20892;-42
2023/05/06 08:54:13;;;;;;;25.13;23.53;;;;;;;7.61;100.00;102059.75;5023569;28;20436;-47
2023/05/06 08:56:45;;;;;;;25.40;23.60;;;;;;;7.69;100.00;102063.34;5025647;28;20831;-43
2023/05/06 08:59:14;;;;;;;25.93;24.03;;;;;;;7.70;100.00;102056.22;5031387;28;20519;-43
2023/05/06 09:01:41;;;;;;;24.63;23.23;;;;;;;7.79;100.00;102063.31;5030919;28;20971;-43
2023/05/06 09:04:10;;;;;;;26.30;24.17;;;;;;;7.79;100.00;102063.31;5031865;28;20770;-46
2023/05/06 09:06:40;;;;;;;26.17;24.30;;;;;;;7.90;100.00;102067.59;5021885;28;20484;-44
2023/05/06 09:09:08;;;;;;;26.87;25.00;;;;;;;7.99;100.00;102064.06;4990608;28;20436;-41
2023/05/06 09:11:37;;;;;;;25.00;23.40;;;;;;;8.03;100.00;102065.44;4990215;28;20450;-42
2023/05/06 09:14:11;;;;;;;26.17;24.27;;;;;;;8.06;100.00;102058.00;4990748;28;20444;-44
2023/05/06 09:16:39;;;;;;;26.87;24.97;;;;;;;8.00;100.00;102066.56;4990462;28;20462;-42
2023/05/06 09:19:07;;;;;;;25.60;24.00;;;;;;;8.06;100.00;102065.16;4990600;28;20466;-42
2023/05/06 09:21:37;;;;;;;26.63;25.00;;;;;;;8.03;100.00;102066.28;4989956;28;20480;-40
2023/05/06 09:24:08;;;;;;;26.47;24.67;;;;;;;8.02;100.00;102058.44;4990369;28;20429;-41
2023/05/06 09:26:37;;;;;;;27.43;25.50;;;;;;;7.98;100.00;102073.84;5006550;28;20483;-42
2023/05/06 09:29:06;;;;;;;27.53;25.83;;;;;;;7.96;100.00;102070.50;5010199;28;20487;-46
2023/05/06 09:31:40;;;;;;;28.50;26.27;;;;;;;8.00;100.00;102069.22;5009966;28;20441;-44
2023/05/06 09:34:08;;;;;;;27.10;25.40;;;;;;;7.78;100.00;102078.41;5010148;28;20438;-44
2023/05/06 09:36:36;;;;;;;25.60;23.90;;;;;;;7.77;100.00;102071.41;5014542;28;20463;-41
2023/05/06 09:39:06;;;;;;;25.47;23.87;;;;;;;7.68;100.00;102074.09;5010512;28;20436;-42
2023/05/06 09:41:34;;;;;;;25.30;23.70;;;;;;;7.56;100.00;102075.25;4983918;28;20479;-44
2023/05/06 09:44:01;;;;;;;24.30;22.90;;;;;;;7.57;100.00;102069.81;5011175;28;20437;-42
2023/05/06 09:46:30;;;;;;;23.80;22.10;;;;;;;7.62;100.00;102067.56;5009821;28;20918;-44
2023/05/06 09:48:58;;;;;;;23.93;22.40;;;;;;;7.67;100.00;102077.75;5009670;28;20988;-40
2023/05/06 09:51:27;;;;;;;23.00;21.60;;;;;;;7.76;100.00;102074.22;5008610;28;20564;-41
2023/05/06 09:53:56;;;;;;;25.20;23.80;;;;;;;7.82;100.00;102075.47;5009256;28;20470;-43
2023/05/06 09:56:26;;;;;;;25.07;23.67;;;;;;;7.88;100.00;102073.06;5010711;28;20491;-42
2023/05/06 09:58:55;;;;;;;24.60;22.90;;;;;;;7.78;100.00;102067.78;5010877;28;20436;-43
2023/05/06 10:01:24;;;;;;;24.33;22.60;;;;;;;7.79;100.00;102073.94;5009058;28;20544;-45
2023/05/06 10:04:08;;;;;;;24.80;23.30;;;;;;;7.92;100.00;102081.56;5009014;28;20440;-43
2023/05/06 10:06:38;;;;;;;24.70;22.70;;;;;;;7.90;100.00;102079.06;5010605;28;20823;-44
2023/05/06 10:09:07;;;;;;;25.83;23.93;;;;;;;7.89;100.00;102079.19;5010223;28;20429;-41
2023/05/06 10:11:37;;;;;;;24.63;23.20;;;;;;;7.99;100.00;102078.19;5009014;28;20862;-44
2023/05/06 10:14:06;;;;;;;24.60;23.20;;;;;;;8.03;100.00;102074.25;5010056;28;20433;-40
2023/05/06 10:16:34;;;;;;;26.43;24.57;;;;;;;8.15;100.00;102080.19;5008103;28;20507;-45
2023/05/06 10:19:05;;;;;;;24.00;22.60;;;;;;;8.24;100.00;102071.34;5010552;28;20852;-41
2023/05/06 10:21:35;;;;;;;24.40;22.97;;;;;;;8.43;100.00;102073.03;5020247;28;20471;-44
2023/05/06 10:24:07;;;;;;;25.33;23.73;;;;;;;8.45;100.00;102061.31;5017248;28;20485;-46
2023/05/06 10:26:38;;;;;;;26.73;24.73;;;;;;;8.51;100.00;102062.50;5014074;28;20444;-41
2023/05/06 10:29:09;;;;;;;24.37;22.93;;;;;;;8.68;100.00;102059.03;5023630;28;20435;-42
2023/05/06 10:31:43;;;;;;;24.33;22.87;;;;;;;8.58;100.00;102066.22;5013873;28;20544;-45
2023/05/06 10:34:11;;;;;;;25.93;24.03;;;;;;;8.66;100.00;102063.66;5011183;28;20470;-44
2023/05/06 10:36:40;;;;;;;27.77;26.07;;;;;;;8.57;100.00;102068.03;5018245;28;20440;-41
2023/05/06 10:39:11;;;;;;;24.90;23.17;;;;;;;8.70;100.00;102065.00;5025735;28;20431;-43
2023/05/06 10:41:40;;;;;;;26.40;24.30;;;;;;;8.85;100.00;102064.31;5025750;28;20457;-41
2023/05/06 10:44:08;;;;;;;26.13;24.13;;;;;;;8.82;100.00;102072.63;5027171;28;20456;-43
2023/05/06 10:46:59;;;;;;;25.83;24.10;;;;;;;8.97;100.00;102064.91;5026827;28;20439;-45
2023/05/06 10:49:27;;;;;;;26.17;24.27;;;;;;;9.06;100.00;102065.81;5022692;28;20849;-45
2023/05/06 10:52:12;;;;;;;26.80;24.83;;;;;;;9.11;100.00;102063.56;5019210;28;20465;-41
2023/05/06 10:54:48;;;;;;;25.70;24.00;;;;;;;9.01;100.00;102066.28;5020890;28;20455;-45
2023/05/06 10:57:19;;;;;;;25.47;23.97;;;;;;;8.99;100.00;102072.75;5016941;28;20830;-42
2023/05/06 10:59:47;;;;;;;26.77;24.97;;;;;;;8.84;100.00;102064.50;5013434;28;20424;-41
2023/05/06 11:02:20;;;;;;;26.13;24.30;;;;;;;8.83;100.00;102065.47;5012066;28;20461;-43
2023/05/06 11:04:52;;;;;;;26.27;23.87;;;;;;;8.92;100.00;102079.69;5015576;28;20429;-42
2023/05/06 11:07:24;;;;;;;26.20;24.10;;;;;;;8.82;100.00;102064.63;5020337;28;20869;-42
2023/05/06 11:09:56;;;;;;;26.40;24.53;;;;;;;8.88;100.00;102065.84;5020409;28;20440;-41
2023/05/06 11:12:47;;;;;;;26.07;24.40;;;;;;;8.81;100.00;102070.94;5022801;28;21254;-47
2023/05/06 11:15:34;;;;;;;27.50;25.30;;;;;;;8.85;100.00;102067.00;5024958;28;20790;-41